sensor_id;sensor_type;location;lat;lon;timestamp;pressure;altitude;pressure_sealevel;temperature;humidity
54936;BME280;40838;50.676;7.838;2023-03-25T00:01:09;97306.22;;;2.18;100.00
54936;BME280;40838;50.676;7.838;2023-03-25T00:03:40;97305.72;;;2.22;100.00
54936;BME280;40838;50.676;7.838;2023-03-25T00:06:09;97293.59;;;2.15;100.00
54936;BME280;40838;50.676;7.838;2023-03-25T00:08:36;97307.81;;;2.20;100.00
54936;BME280;40838;50.676;7.838;2023-03-25T00:11:05;97311.53;;;2.24;100.00
54936;BME280;40838;50.676;7.838;2023-03-25T00:13:33;97304.56;;;2.07;100.00
54936;BME280;40838;50.676;7.838;2023-03-25T00:16:00;97316.69;;;1.47;100.00
54936;BME280;40838;50.676;7.838;2023-03-25T00:18:30;97310.97;;;1.34;100.00
54936;BME280;40838;50.676;7.838;2023-03-25T00:20:59;97302.94;;;0.85;100.00
54936;BME280;40838;50.676;7.838;2023-03-25T00:23:26;97309.25;;;0.72;100.00
54936;BME280;40838;50.676;7.838;2023-03-25T00:25:54;97313.94;;;0.70;100.00
54936;BME280;40838;50.676;7.838;2023-03-25T00:28:27;97317.03;;;0.67;100.00
54936;BME280;40838;50.676;7.838;2023-03-25T00:30:58;97314.88;;;0.64;100.00
54936;BME280;40838;50.676;7.838;2023-03-25T00:33:25;97313.22;;;0.57;100.00
54936;BME280;40838;50.676;7.838;2023-03-25T00:35:52;97314.56;;;0.60;100.00
54936;BME280;40838;50.676;7.838;2023-03-25T00:38:25;97321.13;;;1.08;100.00
54936;BME280;40838;50.676;7.838;2023-03-25T00:41:06;97315.69;;;1.32;100.00
54936;BME280;40838;50.676;7.838;2023-03-25T00:43:34;97312.41;;;1.24;100.00
54936;BME280;40838;50.676;7.838;2023-03-25T00:46:01;97307.22;;;1.46;100.00
54936;BME280;40838;50.676;7.838;2023-03-25T00:48:28;97307.97;;;1.25;100.00
54936;BME280;40838;50.676;7.838;2023-03-25T00:50:55;97313.16;;;1.20;100.00
54936;BME280;40838;50.676;7.838;2023-03-25T00:53:22;97308.19;;;1.40;100.00
54936;BME280;40838;50.676;7.838;2023-03-25T00:55:49;97313.53;;;1.29;100.00
54936;BME280;40838;50.676;7.838;2023-03-25T00:58:16;97313.38;;;1.35;100.00
54936;BME280;40838;50.676;7.838;2023-03-25T01:00:44;97310.97;;;1.34;100.00
54936;BME280;40838;50.676;7.838;2023-03-25T01:03:12;97303.84;;;1.29;100.00
54936;BME280;40838;50.676;7.838;2023-03-25T01:05:39;97306.97;;;1.48;100.00
54936;BME280;40838;50.676;7.838;2023-03-25T01:08:07;97301.81;;;1.36;100.00
54936;BME280;40838;50.676;7.838;2023-03-25T01:10:36;97294.63;;;1.26;100.00
54936;BME280;40838;50.676;7.838;2023-03-25T01:13:03;97291.59;;;1.18;100.00
54936;BME280;40838;50.676;7.838;2023-03-25T01:15:30;97297.13;;;1.38;100.00
54936;BME280;40838;50.676;7.838;2023-03-25T01:17:58;97292.06;;;1.32;100.00
54936;BME280;40838;50.676;7.838;2023-03-25T01:20:24;97299.19;;;1.36;100.00
54936;BME280;40838;50.676;7.838;2023-03-25T01:22:52;97294.13;;;1.30;100.00
54936;BME280;40838;50.676;7.838;2023-03-25T01:25:19;97290.13;;;1.44;100.00
54936;BME280;40838;50.676;7.838;2023-03-25T01:27:45;97283.16;;;1.33;100.00
54936;BME280;40838;50.676;7.838;2023-03-25T01:30:13;97287.28;;;0.73;100.00
54936;BME280;40838;50.676;7.838;2023-03-25T01:32:40;97284.50;;;0.96;100.00
54936;BME280;40838;50.676;7.838;2023-03-25T01:35:09;97277.41;;;0.97;100.00
54936;BME280;40838;50.676;7.838;2023-03-25T01:37:37;97281.78;;;1.08;100.00
54936;BME280;40838;50.676;7.838;2023-03-25T01:40:04;97281.22;;;1.06;100.00
54936;BME280;40838;50.676;7.838;2023-03-25T01:42:34;97275.13;;;1.22;100.00
54936;BME280;40838;50.676;7.838;2023-03-25T01:45:19;97273.66;;;1.10;100.00
54936;BME280;40838;50.676;7.838;2023-03-25T01:47:47;97275.66;;;1.02;100.00
54936;BME280;40838;50.676;7.838;2023-03-25T01:50:16;97273.72;;;1.15;100.00
54936;BME280;40838;50.676;7.838;2023-03-25T01:52:47;97266.91;;;1.36;100.00
54936;BME280;40838;50.676;7.838;2023-03-25T01:55:16;97268.56;;;1.42;100.00
54936;BME280;40838;50.676;7.838;2023-03-25T01:57:45;97267.91;;;1.30;100.00
54936;BME280;40838;50.676;7.838;2023-03-25T02:00:14;97263.13;;;1.26;100.00
54936;BME280;40838;50.676;7.838;2023-03-25T02:02:42;97262.88;;;1.28;100.00
54936;BME280;40838;50.676;7.838;2023-03-25T02:05:15;97264.22;;;1.31;100.00
54936;BME280;40838;50.676;7.838;2023-03-25T02:07:48;97266.75;;;1.42;100.00
54936;BME280;40838;50.676;7.838;2023-03-25T02:10:15;97268.59;;;1.25;100.00
54936;BME280;40838;50.676;7.838;2023-03-25T02:12:43;97259.84;;;1.36;100.00
54936;BME280;40838;50.676;7.838;2023-03-25T02:15:14;97261.00;;;1.23;100.00
54936;BME280;40838;50.676;7.838;2023-03-25T02:18:02;97254.28;;;0.26;100.00
54936;BME280;40838;50.676;7.838;2023-03-25T02:21:05;97250.41;;;0.29;100.00
54936;BME280;40838;50.676;7.838;2023-03-25T02:24:04;97254.75;;;0.23;100.00
54936;BME280;40838;50.676;7.838;2023-03-25T02:27:03;97253.94;;;0.23;100.00
54936;BME280;40838;50.676;7.838;2023-03-25T02:29:54;97258.53;;;0.16;100.00
54936;BME280;40838;50.676;7.838;2023-03-25T02:32:42;97254.66;;;0.18;100.00
54936;BME280;40838;50.676;7.838;2023-03-25T02:35:30;97248.06;;;0.16;100.00
54936;BME280;40838;50.676;7.838;2023-03-25T02:38:17;97244.41;;;0.17;100.00
54936;BME280;40838;50.676;7.838;2023-03-25T02:40:54;97246.53;;;0.20;100.00
54936;BME280;40838;50.676;7.838;2023-03-25T02:43:26;97244.09;;;0.13;100.00
54936;BME280;40838;50.676;7.838;2023-03-25T02:45:58;97247.91;;;0.22;100.00
54936;BME280;40838;50.676;7.838;2023-03-25T02:48:29;97247.81;;;0.17;100.00
54936;BME280;40838;50.676;7.838;2023-03-25T02:51:02;97247.91;;;0.22;100.00
54936;BME280;40838;50.676;7.838;2023-03-25T02:53:33;97245.59;;;0.26;100.00
54936;BME280;40838;50.676;7.838;2023-03-25T02:56:04;97243.44;;;0.23;100.00
54936;BME280;40838;50.676;7.838;2023-03-25T02:58:33;97241.88;;;0.22;100.00
54936;BME280;40838;50.676;7.838;2023-03-25T03:01:00;97241.47;;;0.13;100.00
54936;BME280;40838;50.676;7.838;2023-03-25T03:03:27;97230.63;;;0.72;100.00
54936;BME280;40838;50.676;7.838;2023-03-25T03:05:58;97223.88;;;0.59;100.00
54936;BME280;40838;50.676;7.838;2023-03-25T03:08:39;97219.56;;;0.70;100.00
54936;BME280;40838;50.676;7.838;2023-03-25T03:11:12;97219.41;;;0.76;100.00
54936;BME280;40838;50.676;7.838;2023-03-25T03:14:04;97232.06;;;0.79;100.00
54936;BME280;40838;50.676;7.838;2023-03-25T03:16:45;97227.28;;;0.93;100.00
54936;BME280;40838;50.676;7.838;2023-03-25T03:19:25;97221.22;;;0.93;100.00
54936;BME280;40838;50.676;7.838;2023-03-25T03:22:00;97218.63;;;1.15;100.00
54936;BME280;40838;50.676;7.838;2023-03-25T03:24:32;97221.59;;;1.01;100.00
54936;BME280;40838;50.676;7.838;2023-03-25T03:27:06;97228.16;;;0.82;100.00
54936;BME280;40838;50.676;7.838;2023-03-25T03:29:38;97222.75;;;1.11;100.00
54936;BME280;40838;50.676;7.838;2023-03-25T03:32:11;97223.50;;;1.06;100.00
54936;BME280;40838;50.676;7.838;2023-03-25T03:34:44;97231.97;;;1.13;100.00
54936;BME280;40838;50.676;7.838;2023-03-25T03:37:15;97227.00;;;1.12;100.00
54936;BME280;40838;50.676;7.838;2023-03-25T03:39:46;97234.69;;;1.18;100.00
54936;BME280;40838;50.676;7.838;2023-03-25T03:42:17;97225.94;;;1.13;100.00
54936;BME280;40838;50.676;7.838;2023-03-25T03:44:49;97236.75;;;1.16;100.00
54936;BME280;40838;50.676;7.838;2023-03-25T03:47:21;97230.09;;;1.09;100.00
54936;BME280;40838;50.676;7.838;2023-03-25T03:49:52;97225.25;;;1.00;100.00
54936;BME280;40838;50.676;7.838;2023-03-25T03:52:24;97235.34;;;1.09;100.00
54936;BME280;40838;50.676;7.838;2023-03-25T03:54:55;97243.28;;;1.14;100.00
54936;BME280;40838;50.676;7.838;2023-03-25T03:57:27;97246.38;;;1.11;100.00
54936;BME280;40838;50.676;7.838;2023-03-25T03:59:59;97243.91;;;1.21;100.00
54936;BME280;40838;50.676;7.838;2023-03-25T04:02:39;97255.25;;;1.26;100.00
54936;BME280;40838;50.676;7.838;2023-03-25T04:05:08;97262.19;;;1.16;100.00
54936;BME280;40838;50.676;7.838;2023-03-25T04:07:41;97262.69;;;1.13;100.00
54936;BME280;40838;50.676;7.838;2023-03-25T04:10:13;97258.97;;;1.09;100.00
54936;BME280;40838;50.676;7.838;2023-03-25T04:12:45;97265.69;;;1.21;100.00
54936;BME280;40838;50.676;7.838;2023-03-25T04:15:13;97270.47;;;1.08;100.00
54936;BME280;40838;50.676;7.838;2023-03-25T04:17:40;97265.84;;;1.15;100.00
54936;BME280;40838;50.676;7.838;2023-03-25T04:20:09;97257.81;;;1.21;100.00
54936;BME280;40838;50.676;7.838;2023-03-25T04:22:39;97267.75;;;1.19;100.00
54936;BME280;40838;50.676;7.838;2023-03-25T04:25:12;97277.94;;;1.16;100.00
54936;BME280;40838;50.676;7.838;2023-03-25T04:27:39;97269.34;;;1.20;100.00
54936;BME280;40838;50.676;7.838;2023-03-25T04:30:19;97276.84;;;1.12;100.00
54936;BME280;40838;50.676;7.838;2023-03-25T04:32:46;97272.28;;;1.24;100.00
54936;BME280;40838;50.676;7.838;2023-03-25T04:35:13;97266.47;;;1.22;100.00
54936;BME280;40838;50.676;7.838;2023-03-25T04:37:41;97267.44;;;1.16;100.00
54936;BME280;40838;50.676;7.838;2023-03-25T04:40:13;97271.22;;;1.25;100.00
54936;BME280;40838;50.676;7.838;2023-03-25T04:42:40;97269.44;;;1.25;100.00
54936;BME280;40838;50.676;7.838;2023-03-25T04:45:09;97271.56;;;1.29;100.00
54936;BME280;40838;50.676;7.838;2023-03-25T04:47:39;97266.25;;;1.23;100.00
54936;BME280;40838;50.676;7.838;2023-03-25T04:50:16;97277.44;;;1.19;100.00
54936;BME280;40838;50.676;7.838;2023-03-25T04:52:44;97266.31;;;1.29;100.00
54936;BME280;40838;50.676;7.838;2023-03-25T04:55:13;97268.22;;;1.16;100.00
54936;BME280;40838;50.676;7.838;2023-03-25T04:57:43;97283.66;;;1.13;100.00
54936;BME280;40838;50.676;7.838;2023-03-25T05:00:12;97276.16;;;1.21;100.00
54936;BME280;40838;50.676;7.838;2023-03-25T05:02:42;97280.75;;;1.31;100.00
54936;BME280;40838;50.676;7.838;2023-03-25T05:05:10;97277.41;;;1.14;100.00
54936;BME280;40838;50.676;7.838;2023-03-25T05:07:44;97264.81;;;1.16;100.00
54936;BME280;40838;50.676;7.838;2023-03-25T05:10:13;97268.00;;;1.18;100.00
54936;BME280;40838;50.676;7.838;2023-03-25T05:12:40;97271.22;;;1.25;100.00
54936;BME280;40838;50.676;7.838;2023-03-25T05:15:09;97262.25;;;1.21;100.00
54936;BME280;40838;50.676;7.838;2023-03-25T05:17:36;97273.31;;;1.23;100.00
54936;BME280;40838;50.676;7.838;2023-03-25T05:20:04;97273.38;;;1.28;100.00
54936;BME280;40838;50.676;7.838;2023-03-25T05:22:33;97274.53;;;1.15;100.00
54936;BME280;40838;50.676;7.838;2023-03-25T05:25:03;97275.31;;;1.16;100.00
54936;BME280;40838;50.676;7.838;2023-03-25T05:27:32;97282.69;;;1.19;100.00
54936;BME280;40838;50.676;7.838;2023-03-25T05:30:00;97278.72;;;1.16;100.00
54936;BME280;40838;50.676;7.838;2023-03-25T05:32:29;97280.44;;;1.27;100.00
54936;BME280;40838;50.676;7.838;2023-03-25T05:34:57;97275.31;;;1.16;100.00
54936;BME280;40838;50.676;7.838;2023-03-25T05:37:24;97293.75;;;1.21;100.00
54936;BME280;40838;50.676;7.838;2023-03-25T05:39:51;97288.44;;;1.16;100.00
54936;BME280;40838;50.676;7.838;2023-03-25T05:42:18;97289.56;;;1.20;100.00
54936;BME280;40838;50.676;7.838;2023-03-25T05:44:48;97288.25;;;1.22;100.00
54936;BME280;40838;50.676;7.838;2023-03-25T05:47:17;97295.47;;;1.32;100.00
54936;BME280;40838;50.676;7.838;2023-03-25T05:49:46;97295.19;;;1.29;100.00
54936;BME280;40838;50.676;7.838;2023-03-25T05:52:13;97303.44;;;1.20;100.00
54936;BME280;40838;50.676;7.838;2023-03-25T05:54:41;97298.28;;;1.25;100.00
54936;BME280;40838;50.676;7.838;2023-03-25T05:57:08;97310.06;;;1.23;100.00
54936;BME280;40838;50.676;7.838;2023-03-25T05:59:35;97312.59;;;1.18;100.00
54936;BME280;40838;50.676;7.838;2023-03-25T06:02:05;97307.47;;;1.28;100.00
54936;BME280;40838;50.676;7.838;2023-03-25T06:04:33;97310.34;;;1.26;100.00
54936;BME280;40838;50.676;7.838;2023-03-25T06:07:05;97300.00;;;1.37;100.00
54936;BME280;40838;50.676;7.838;2023-03-25T06:09:40;97305.78;;;1.17;100.00
54936;BME280;40838;50.676;7.838;2023-03-25T06:12:11;97301.53;;;1.33;100.00
54936;BME280;40838;50.676;7.838;2023-03-25T06:14:38;97304.06;;;1.27;100.00
54936;BME280;40838;50.676;7.838;2023-03-25T06:17:09;97309.09;;;1.29;100.00
54936;BME280;40838;50.676;7.838;2023-03-25T06:19:36;97302.66;;;1.20;100.00
54936;BME280;40838;50.676;7.838;2023-03-25T06:22:08;97313.94;;;1.37;100.00
54936;BME280;40838;50.676;7.838;2023-03-25T06:24:36;97305.72;;;1.34;100.00
54936;BME280;40838;50.676;7.838;2023-03-25T06:27:04;97317.19;;;1.11;100.00
54936;BME280;40838;50.676;7.838;2023-03-25T06:29:31;97313.94;;;1.20;100.00
54936;BME280;40838;50.676;7.838;2023-03-25T06:31:58;97312.91;;;1.21;100.00
54936;BME280;40838;50.676;7.838;2023-03-25T06:34:26;97313.38;;;1.18;100.00
54936;BME280;40838;50.676;7.838;2023-03-25T06:36:53;97310.59;;;1.25;100.00
54936;BME280;40838;50.676;7.838;2023-03-25T06:39:20;97305.03;;;1.21;100.00
54936;BME280;40838;50.676;7.838;2023-03-25T06:41:47;97313.38;;;1.35;100.00
54936;BME280;40838;50.676;7.838;2023-03-25T06:44:26;97316.84;;;1.41;100.00
54936;BME280;40838;50.676;7.838;2023-03-25T06:47:23;97314.03;;;1.25;100.00
54936;BME280;40838;50.676;7.838;2023-03-25T06:49:52;97311.06;;;1.39;100.00
54936;BME280;40838;50.676;7.838;2023-03-25T06:52:19;97317.59;;;1.19;100.00
54936;BME280;40838;50.676;7.838;2023-03-25T06:54:46;97326.97;;;1.15;100.00
54936;BME280;40838;50.676;7.838;2023-03-25T06:57:12;97312.78;;;1.50;100.00
54936;BME280;40838;50.676;7.838;2023-03-25T06:59:39;97317.19;;;1.66;100.00
54936;BME280;40838;50.676;7.838;2023-03-25T07:02:06;97313.66;;;2.00;100.00
54936;BME280;40838;50.676;7.838;2023-03-25T07:04:33;97310.59;;;1.86;100.00
54936;BME280;40838;50.676;7.838;2023-03-25T07:07:02;97309.31;;;1.88;100.00
54936;BME280;40838;50.676;7.838;2023-03-25T07:09:28;97305.00;;;2.26;100.00
54936;BME280;40838;50.676;7.838;2023-03-25T07:11:55;97299.75;;;2.85;100.00
54936;BME280;40838;50.676;7.838;2023-03-25T07:14:22;97296.19;;;1.88;100.00
54936;BME280;40838;50.676;7.838;2023-03-25T07:16:49;97307.19;;;2.07;100.00
54936;BME280;40838;50.676;7.838;2023-03-25T07:19:16;97303.88;;;2.44;100.00
54936;BME280;40838;50.676;7.838;2023-03-25T07:21:43;97301.44;;;1.66;100.00
54936;BME280;40838;50.676;7.838;2023-03-25T07:24:11;97297.19;;;2.09;100.00
54936;BME280;40838;50.676;7.838;2023-03-25T07:26:38;97299.53;;;2.06;100.00
54936;BME280;40838;50.676;7.838;2023-03-25T07:29:06;97299.09;;;1.48;100.00
54936;BME280;40838;50.676;7.838;2023-03-25T07:31:33;97296.25;;;1.71;100.00
54936;BME280;40838;50.676;7.838;2023-03-25T07:34:00;97298.88;;;1.49;100.00
54936;BME280;40838;50.676;7.838;2023-03-25T07:36:27;97293.72;;;1.60;100.00
54936;BME280;40838;50.676;7.838;2023-03-25T07:38:54;97298.22;;;1.81;100.00
54936;BME280;40838;50.676;7.838;2023-03-25T07:41:22;97297.25;;;1.92;100.00
54936;BME280;40838;50.676;7.838;2023-03-25T07:44:02;97291.53;;;1.73;100.00
54936;BME280;40838;50.676;7.838;2023-03-25T07:46:31;97292.38;;;1.35;100.00
54936;BME280;40838;50.676;7.838;2023-03-25T07:48:58;97295.75;;;1.53;100.00
54936;BME280;40838;50.676;7.838;2023-03-25T07:54:28;97286.84;;;1.54;100.00
54936;BME280;40838;50.676;7.838;2023-03-25T07:56:56;97294.88;;;1.69;100.00
54936;BME280;40838;50.676;7.838;2023-03-25T07:59:23;97311.47;;;1.69;100.00
54936;BME280;40838;50.676;7.838;2023-03-25T08:01:50;97298.13;;;1.54;100.00
54936;BME280;40838;50.676;7.838;2023-03-25T08:04:17;97308.69;;;1.37;100.00
54936;BME280;40838;50.676;7.838;2023-03-25T08:06:44;97302.69;;;1.42;100.00
54936;BME280;40838;50.676;7.838;2023-03-25T08:09:11;97312.47;;;1.46;100.00
54936;BME280;40838;50.676;7.838;2023-03-25T08:11:37;97305.81;;;1.39;100.00
54936;BME280;40838;50.676;7.838;2023-03-25T08:14:11;97314.47;;;1.39;100.00
54936;BME280;40838;50.676;7.838;2023-03-25T08:16:37;97306.47;;;1.51;100.00
54936;BME280;40838;50.676;7.838;2023-03-25T08:19:04;97308.78;;;1.64;100.00
54936;BME280;40838;50.676;7.838;2023-03-25T08:21:31;97310.34;;;1.43;100.00
54936;BME280;40838;50.676;7.838;2023-03-25T08:23:58;97315.59;;;1.43;100.00
54936;BME280;40838;50.676;7.838;2023-03-25T08:26:27;97331.03;;;1.23;100.00
54936;BME280;40838;50.676;7.838;2023-03-25T08:28:56;97350.44;;;1.22;100.00
54936;BME280;40838;50.676;7.838;2023-03-25T08:31:26;97351.88;;;1.30;100.00
54936;BME280;40838;50.676;7.838;2023-03-25T08:33:55;97363.31;;;1.07;100.00
54936;BME280;40838;50.676;7.838;2023-03-25T08:36:23;97373.72;;;1.18;100.00
54936;BME280;40838;50.676;7.838;2023-03-25T08:38:50;97380.31;;;1.21;100.00
54936;BME280;40838;50.676;7.838;2023-03-25T08:41:18;97370.72;;;1.10;100.00
54936;BME280;40838;50.676;7.838;2023-03-25T08:43:45;97373.03;;;1.23;100.00
54936;BME280;40838;50.676;7.838;2023-03-25T08:46:12;97385.56;;;1.21;100.00
54936;BME280;40838;50.676;7.838;2023-03-25T08:48:41;97344.69;;;1.25;100.00
54936;BME280;40838;50.676;7.838;2023-03-25T08:51:09;97348.66;;;1.27;100.00
54936;BME280;40838;50.676;7.838;2023-03-25T08:53:35;97355.59;;;1.34;100.00
54936;BME280;40838;50.676;7.838;2023-03-25T08:56:03;97359.63;;;1.41;100.00
54936;BME280;40838;50.676;7.838;2023-03-25T08:58:30;97360.97;;;1.61;100.00
54936;BME280;40838;50.676;7.838;2023-03-25T09:00:56;97360.97;;;1.61;100.00
54936;BME280;40838;50.676;7.838;2023-03-25T09:03:24;97365.47;;;1.65;100.00
54936;BME280;40838;50.676;7.838;2023-03-25T09:05:53;97361.50;;;1.63;100.00
54936;BME280;40838;50.676;7.838;2023-03-25T09:08:20;97366.25;;;2.05;100.00
54936;BME280;40838;50.676;7.838;2023-03-25T09:10:47;97366.50;;;2.25;100.00
54936;BME280;40838;50.676;7.838;2023-03-25T09:13:14;97378.59;;;2.75;100.00
54936;BME280;40838;50.676;7.838;2023-03-25T09:15:41;97383.88;;;3.40;100.00
54936;BME280;40838;50.676;7.838;2023-03-25T09:18:08;97360.13;;;2.70;100.00
54936;BME280;40838;50.676;7.838;2023-03-25T09:20:35;97370.78;;;2.85;100.00
54936;BME280;40838;50.676;7.838;2023-03-25T09:23:04;97368.34;;;3.06;100.00
54936;BME280;40838;50.676;7.838;2023-03-25T09:25:31;97356.72;;;3.02;100.00
54936;BME280;40838;50.676;7.838;2023-03-25T09:27:57;97354.44;;;3.11;100.00
54936;BME280;40838;50.676;7.838;2023-03-25T09:30:24;97370.72;;;2.75;100.00
54936;BME280;40838;50.676;7.838;2023-03-25T09:32:51;97365.97;;;4.57;100.00
54936;BME280;40838;50.676;7.838;2023-03-25T09:35:18;97359.94;;;5.33;100.00
54936;BME280;40838;50.676;7.838;2023-03-25T09:37:44;97360.41;;;6.46;100.00
54936;BME280;40838;50.676;7.838;2023-03-25T09:40:14;97368.41;;;5.00;100.00
54936;BME280;40838;50.676;7.838;2023-03-25T09:42:49;97366.53;;;4.95;100.00
54936;BME280;40838;50.676;7.838;2023-03-25T09:45:30;97368.59;;;5.85;100.00
54936;BME280;40838;50.676;7.838;2023-03-25T09:48:02;97367.84;;;5.49;100.00
54936;BME280;40838;50.676;7.838;2023-03-25T09:50:34;97357.97;;;6.94;100.00
54936;BME280;40838;50.676;7.838;2023-03-25T09:53:04;97353.50;;;6.45;100.00
54936;BME280;40838;50.676;7.838;2023-03-25T09:55:39;97360.75;;;4.98;100.00
54936;BME280;40838;50.676;7.838;2023-03-25T09:58:25;97365.91;;;4.27;100.00
54936;BME280;40838;50.676;7.838;2023-03-25T10:00:58;97363.09;;;4.59;100.00
54936;BME280;40838;50.676;7.838;2023-03-25T10:03:31;97359.59;;;4.38;100.00
54936;BME280;40838;50.676;7.838;2023-03-25T10:06:13;97365.72;;;3.91;100.00
54936;BME280;40838;50.676;7.838;2023-03-25T10:08:51;97365.09;;;3.68;100.00
54936;BME280;40838;50.676;7.838;2023-03-25T10:11:29;97367.19;;;3.66;100.00
54936;BME280;40838;50.676;7.838;2023-03-25T10:14:04;97359.19;;;3.56;100.00
54936;BME280;40838;50.676;7.838;2023-03-25T10:16:39;97366.59;;;4.07;100.00
54936;BME280;40838;50.676;7.838;2023-03-25T10:19:20;97360.75;;;3.99;100.00
54936;BME280;40838;50.676;7.838;2023-03-25T10:21:52;97358.13;;;4.05;100.00
54936;BME280;40838;50.676;7.838;2023-03-25T10:24:24;97363.59;;;3.88;100.00
54936;BME280;40838;50.676;7.838;2023-03-25T10:26:58;97357.34;;;3.51;100.00
54936;BME280;40838;50.676;7.838;2023-03-25T10:29:30;97355.16;;;3.86;100.00
54936;BME280;40838;50.676;7.838;2023-03-25T10:32:02;97357.25;;;3.84;100.00
54936;BME280;40838;50.676;7.838;2023-03-25T10:34:34;97369.53;;;4.15;100.00
54936;BME280;40838;50.676;7.838;2023-03-25T10:37:06;97377.81;;;3.87;100.00
54936;BME280;40838;50.676;7.838;2023-03-25T10:39:40;97370.13;;;4.28;100.00
54936;BME280;40838;50.676;7.838;2023-03-25T10:42:18;97373.38;;;4.65;100.00
54936;BME280;40838;50.676;7.838;2023-03-25T10:44:46;97373.44;;;4.08;100.00
54936;BME280;40838;50.676;7.838;2023-03-25T10:47:16;97370.66;;;4.35;100.00
54936;BME280;40838;50.676;7.838;2023-03-25T10:49:46;97375.22;;;4.70;100.00
54936;BME280;40838;50.676;7.838;2023-03-25T10:52:15;97383.09;;;4.44;100.00
54936;BME280;40838;50.676;7.838;2023-03-25T10:54:45;97379.59;;;4.29;100.00
54936;BME280;40838;50.676;7.838;2023-03-25T10:57:18;97377.41;;;4.20;100.00
54936;BME280;40838;50.676;7.838;2023-03-25T10:59:55;97368.47;;;4.16;100.00
54936;BME280;40838;50.676;7.838;2023-03-25T11:02:25;97367.53;;;4.48;100.00
54936;BME280;40838;50.676;7.838;2023-03-25T11:04:56;97351.34;;;5.98;100.00
54936;BME280;40838;50.676;7.838;2023-03-25T11:07:27;97353.84;;;5.58;100.00
54936;BME280;40838;50.676;7.838;2023-03-25T11:10:09;97357.41;;;6.03;100.00
54936;BME280;40838;50.676;7.838;2023-03-25T11:12:41;97356.59;;;6.63;100.00
54936;BME280;40838;50.676;7.838;2023-03-25T11:15:12;97371.53;;;4.76;100.00
54936;BME280;40838;50.676;7.838;2023-03-25T11:17:40;97376.03;;;4.86;100.00
54936;BME280;40838;50.676;7.838;2023-03-25T11:20:16;97377.59;;;4.72;100.00
54936;BME280;40838;50.676;7.838;2023-03-25T11:22:46;97373.09;;;4.57;100.00
54936;BME280;40838;50.676;7.838;2023-03-25T11:25:18;97374.22;;;4.92;100.00
54936;BME280;40838;50.676;7.838;2023-03-25T11:27:54;97365.50;;;5.22;100.00
54936;BME280;40838;50.676;7.838;2023-03-25T11:30:23;97366.50;;;4.54;100.00
54936;BME280;40838;50.676;7.838;2023-03-25T11:32:58;97369.44;;;4.83;100.00
54936;BME280;40838;50.676;7.838;2023-03-25T11:35:30;97378.66;;;4.71;100.00
54936;BME280;40838;50.676;7.838;2023-03-25T11:38:00;97379.19;;;4.62;100.00
54936;BME280;40838;50.676;7.838;2023-03-25T11:40:29;97374.47;;;5.00;100.00
54936;BME280;40838;50.676;7.838;2023-03-25T11:42:59;97370.53;;;5.03;100.00
54936;BME280;40838;50.676;7.838;2023-03-25T11:45:31;97368.63;;;5.60;100.00
54936;BME280;40838;50.676;7.838;2023-03-25T11:48:02;97359.03;;;5.99;100.00
54936;BME280;40838;50.676;7.838;2023-03-25T11:50:35;97345.00;;;5.99;100.00
54936;BME280;40838;50.676;7.838;2023-03-25T11:53:03;97342.66;;;5.82;100.00
54936;BME280;40838;50.676;7.838;2023-03-25T11:55:42;97339.41;;;6.11;100.00
54936;BME280;40838;50.676;7.838;2023-03-25T11:58:14;97330.59;;;5.55;100.00
54936;BME280;40838;50.676;7.838;2023-03-25T12:00:45;97348.78;;;5.67;100.00
54936;BME280;40838;50.676;7.838;2023-03-25T12:03:18;97349.09;;;5.45;100.00
54936;BME280;40838;50.676;7.838;2023-03-25T12:05:56;97360.75;;;5.24;100.00
54936;BME280;40838;50.676;7.838;2023-03-25T12:08:23;97376.53;;;4.57;100.00
54936;BME280;40838;50.676;7.838;2023-03-25T12:10:54;97367.03;;;4.61;100.00
54936;BME280;40838;50.676;7.838;2023-03-25T12:13:34;97345.66;;;5.40;100.00
54936;BME280;40838;50.676;7.838;2023-03-25T12:16:19;97334.75;;;5.82;100.00
54936;BME280;40838;50.676;7.838;2023-03-25T12:19:03;97336.31;;;6.48;100.00
54936;BME280;40838;50.676;7.838;2023-03-25T12:21:46;97322.22;;;6.58;100.00
54936;BME280;40838;50.676;7.838;2023-03-25T12:24:27;97324.03;;;6.23;100.00
54936;BME280;40838;50.676;7.838;2023-03-25T12:27:10;97327.91;;;5.66;100.00
54936;BME280;40838;50.676;7.838;2023-03-25T12:29:46;97321.84;;;5.65;100.00
54936;BME280;40838;50.676;7.838;2023-03-25T12:32:27;97307.97;;;5.99;100.00
54936;BME280;40838;50.676;7.838;2023-03-25T12:35:16;97318.97;;;5.56;100.00
54936;BME280;40838;50.676;7.838;2023-03-25T12:37:59;97324.25;;;5.46;100.00
54936;BME280;40838;50.676;7.838;2023-03-25T12:40:42;97319.28;;;5.29;100.00
54936;BME280;40838;50.676;7.838;2023-03-25T12:43:15;97339.88;;;4.97;100.00
54936;BME280;40838;50.676;7.838;2023-03-25T12:45:57;97307.94;;;5.19;100.00
54936;BME280;40838;50.676;7.838;2023-03-25T12:48:39;97304.47;;;5.33;100.00
54936;BME280;40838;50.676;7.838;2023-03-25T12:51:17;97301.00;;;5.58;100.00
54936;BME280;40838;50.676;7.838;2023-03-25T12:53:53;97298.69;;;5.16;100.00
54936;BME280;40838;50.676;7.838;2023-03-25T12:56:35;97303.72;;;4.82;100.00
54936;BME280;40838;50.676;7.838;2023-03-25T12:59:30;97329.56;;;4.64;100.00
54936;BME280;40838;50.676;7.838;2023-03-25T13:02:05;97361.88;;;4.19;100.00
54936;BME280;40838;50.676;7.838;2023-03-25T13:04:56;97351.81;;;6.10;100.00
54936;BME280;40838;50.676;7.838;2023-03-25T13:07:30;97341.00;;;6.56;100.00
54936;BME280;40838;50.676;7.838;2023-03-25T13:10:05;97340.81;;;7.50;100.00
54936;BME280;40838;50.676;7.838;2023-03-25T13:12:37;97338.69;;;7.76;100.00
54936;BME280;40838;50.676;7.838;2023-03-25T13:15:13;97330.94;;;6.98;100.00
54936;BME280;40838;50.676;7.838;2023-03-25T13:17:46;97339.25;;;7.49;100.00
54936;BME280;40838;50.676;7.838;2023-03-25T13:20:14;97339.75;;;7.22;100.00
54936;BME280;40838;50.676;7.838;2023-03-25T13:22:44;97338.59;;;6.65;100.00
54936;BME280;40838;50.676;7.838;2023-03-25T13:25:21;97327.47;;;7.60;96.41